Time;durP1;ratioP1;P1;durP2;ratioP2;P2;SDS_P1;SDS_P2;PMS_P1;PMS_P2;Temp;Humidity;BMP_temperature;BMP_pressure;BME280_temperature;BME280_humidity;BME280_pressure;Samples;Min_cycle;Max_cycle;Signal;HPM_P1;HPM_P2
2022/07/20 00:00:52;;;;;;;4.67;2.50;;;;;;;23.60;35.35;98943.41;5091991;28;43615;-73
2022/07/20 00:03:20;;;;;;;2.67;2.30;;;;;;;23.54;35.55;98938.69;5091347;28;41407;-73
2022/07/20 00:05:47;;;;;;;2.60;2.20;;;;;;;23.49;35.58;98949.16;5092578;28;39935;-74
2022/07/20 00:11:19;;;;;;;2.30;2.10;;;;;;;23.43;35.88;98947.13;5091456;28;41188;-74
2022/07/20 00:13:48;;;;;;;3.70;2.40;;;;;;;23.36;36.18;98943.47;5091256;28;43445;-74
2022/07/20 00:16:17;;;;;;;2.30;2.10;;;;;;;23.32;36.15;98942.13;5090960;28;40264;-74
2022/07/20 00:18:45;;;;;;;2.47;2.13;;;;;;;23.28;36.46;98934.34;5090305;28;42679;-74
2022/07/20 00:21:12;;;;;;;2.60;2.30;;;;;;;23.24;36.30;98930.31;5090835;28;42633;-73
2022/07/20 00:23:40;;;;;;;3.20;1.93;;;;;;;23.21;36.29;98929.84;5091104;28;42841;-73
2022/07/20 00:26:08;;;;;;;2.30;2.10;;;;;;;23.22;36.25;98931.53;5090999;28;41228;-74
2022/07/20 00:28:36;;;;;;;2.50;2.00;;;;;;;23.20;36.16;98930.84;5074122;28;40604;-73
2022/07/20 00:31:04;;;;;;;3.83;2.23;;;;;;;23.16;36.38;98938.44;5091813;28;43765;-74
2022/07/20 00:33:33;;;;;;;3.50;2.10;;;;;;;23.15;37.04;98933.22;5073758;28;42127;-73
2022/07/20 00:36:01;;;;;;;3.87;2.60;;;;;;;23.11;37.18;98930.03;5090365;28;40836;-73
2022/07/20 00:38:29;;;;;;;2.93;2.27;;;;;;;23.09;37.09;98928.53;5073790;28;42802;-74
2022/07/20 00:40:56;;;;;;;3.40;2.70;;;;;;;23.05;37.25;98919.91;5073414;28;42012;-74
2022/07/20 00:43:24;;;;;;;3.13;2.23;;;;;;;23.00;37.71;98916.03;5092028;28;42347;-73
2022/07/20 00:45:52;;;;;;;2.57;2.30;;;;;;;22.95;37.73;98919.28;5090797;28;37983;-73
2022/07/20 00:48:20;;;;;;;4.23;2.63;;;;;;;22.87;38.29;98922.81;5090942;28;42594;-73
2022/07/20 00:50:49;;;;;;;3.60;2.17;;;;;;;22.81;38.10;98936.19;5091516;28;42873;-74
2022/07/20 00:53:17;;;;;;;2.43;2.23;;;;;;;22.72;38.86;98926.38;5090597;28;41179;-73
2022/07/20 00:55:45;;;;;;;3.17;2.20;;;;;;;22.62;38.99;98923.03;5090442;28;40922;-73
2022/07/20 00:58:13;;;;;;;2.63;2.43;;;;;;;22.54;38.68;98932.81;5090399;28;42811;-73
2022/07/20 01:00:40;;;;;;;2.90;2.03;;;;;;;22.48;38.62;98920.00;5073324;28;45378;-73
2022/07/20 01:03:08;;;;;;;1.90;1.80;;;;;;;22.39;38.95;98926.41;5091707;28;42525;-73
2022/07/20 01:05:36;;;;;;;3.07;2.60;;;;;;;22.34;38.66;98926.09;5073729;28;40016;-73
2022/07/20 01:08:05;;;;;;;2.83;2.43;;;;;;;22.30;38.85;98922.03;5090392;28;41473;-73
2022/07/20 01:10:33;;;;;;;2.63;2.43;;;;;;;22.28;38.89;98921.34;5091542;28;43956;-73
2022/07/20 01:13:00;;;;;;;2.47;2.13;;;;;;;22.26;39.29;98909.88;5091175;28;42322;-73
2022/07/20 01:15:28;;;;;;;2.70;2.50;;;;;;;22.24;38.96;98920.00;5091959;28;40995;-73
2022/07/20 01:17:56;;;;;;;2.77;2.57;;;;;;;22.23;39.23;98912.09;5089648;28;41193;-73
2022/07/20 01:20:25;;;;;;;2.50;2.27;;;;;;;22.20;39.50;98914.09;5073374;28;43217;-74
2022/07/20 01:22:54;;;;;;;4.37;2.40;;;;;;;22.17;39.36;98914.44;5089717;28;42038;-73
2022/07/20 01:25:22;;;;;;;2.63;2.10;;;;;;;22.15;39.28;98926.38;5073461;28;41246;-73
2022/07/20 01:27:50;;;;;;;2.43;2.00;;;;;;;22.11;39.16;98920.50;5073732;28;40584;-73
2022/07/20 01:30:17;;;;;;;3.47;2.50;;;;;;;22.07;38.91;98924.53;5092332;28;41740;-73
2022/07/20 01:32:45;;;;;;;3.93;2.13;;;;;;;22.02;39.10;98920.66;5094639;28;42258;-73
2022/07/20 01:35:13;;;;;;;2.10;2.00;;;;;;;21.98;39.11;98913.88;5076825;28;38927;-74
2022/07/20 01:37:40;;;;;;;1.90;1.80;;;;;;;21.93;39.52;98905.44;5093397;28;41569;-73
2022/07/20 01:40:12;;;;;;;2.23;2.03;;;;;;;21.92;39.91;98911.84;5093622;28;43734;-73
2022/07/20 01:42:39;;;;;;;2.50;2.20;;;;;;;21.90;39.60;98921.94;5077088;28;42362;-73
2022/07/20 01:45:08;;;;;;;5.33;2.20;;;;;;;21.87;39.47;98920.44;5093786;28;38603;-73
2022/07/20 01:47:35;;;;;;;2.40;1.93;;;;;;;21.85;39.52;98925.16;5093114;28;42581;-73
2022/07/20 01:50:04;;;;;;;2.37;2.00;;;;;;;21.77;39.49;98917.03;5094592;28;43504;-73
2022/07/20 01:52:31;;;;;;;2.20;1.97;;;;;;;21.77;39.49;98919.72;5094358;28;43067;-73
2022/07/20 01:54:59;;;;;;;2.73;1.83;;;;;;;21.74;39.69;98920.94;5076729;28;40290;-73
2022/07/20 01:57:28;;;;;;;2.47;2.27;;;;;;;21.71;39.55;98923.94;5094408;28;41711;-73
2022/07/20 01:59:56;;;;;;;2.33;2.13;;;;;;;21.64;39.90;98908.56;5076202;28;44686;-74
2022/07/20 02:02:23;;;;;;;4.60;1.97;;;;;;;21.69;39.61;98911.63;5093142;28;43318;-73
2022/07/20 02:04:51;;;;;;;2.90;2.30;;;;;;;21.67;39.52;98919.88;5094541;28;40963;-73
2022/07/20 02:07:19;;;;;;;2.80;2.30;;;;;;;21.63;40.16;98915.84;5092955;28;42654;-73
2022/07/20 02:09:47;;;;;;;3.27;1.80;;;;;;;21.60;40.13;98915.31;5093229;28;43562;-73
2022/07/20 02:12:14;;;;;;;3.97;2.40;;;;;;;21.56;40.27;98914.81;5093925;28;42577;-73
2022/07/20 02:14:43;;;;;;;4.70;1.90;;;;;;;21.49;40.83;98913.78;5094348;28;40855;-72
2022/07/20 02:17:11;;;;;;;3.30;2.10;;;;;;;21.46;40.89;98914.09;5094023;28;42982;-73
2022/07/20 02:19:38;;;;;;;3.70;2.50;;;;;;;21.39;40.56;98905.81;5094303;28;43779;-73
2022/07/20 02:22:06;;;;;;;2.97;2.20;;;;;;;21.41;40.81;98905.66;5093849;28;42256;-73
2022/07/20 02:24:34;;;;;;;3.33;2.40;;;;;;;21.40;40.71;98907.50;5094330;28;39882;-73
2022/07/20 02:27:01;;;;;;;2.80;2.50;;;;;;;21.34;40.83;98894.69;5075670;28;40552;-72
2022/07/20 02:29:29;;;;;;;2.40;2.20;;;;;;;21.39;40.66;98902.28;5092990;28;43467;-73
2022/07/20 02:31:58;;;;;;;4.00;2.40;;;;;;;21.40;40.69;98898.56;5092003;28;43210;-72
2022/07/20 02:34:27;;;;;;;2.70;2.30;;;;;;;21.38;41.00;98906.84;5093934;28;39765;-73
2022/07/20 02:36:54;;;;;;;3.03;2.53;;;;;;;21.36;41.03;98905.31;5093303;28;41865;-73
2022/07/20 02:39:22;;;;;;;3.27;2.90;;;;;;;21.37;40.99;98899.78;5092505;28;44204;-73
2022/07/20 02:41:50;;;;;;;3.00;2.63;;;;;;;21.37;41.00;98896.22;5093005;28;42312;-75
2022/07/20 02:44:18;;;;;;;7.10;3.57;;;;;;;21.35;40.85;98900.94;5092760;28;40090;-72
2022/07/20 02:46:45;;;;;;;3.67;2.70;;;;;;;21.34;41.15;98904.63;5075150;28;40893;-73
2022/07/20 02:49:14;;;;;;;2.90;2.57;;;;;;;21.31;41.26;98902.25;5093701;28;42691;-73
2022/07/20 02:51:42;;;;;;;2.60;2.27;;;;;;;21.28;41.21;98903.41;5092075;28;42248;-73
2022/07/20 02:54:09;;;;;;;3.00;2.70;;;;;;;21.25;41.23;98905.63;5092720;28;40835;-72
2022/07/20 02:56:37;;;;;;;3.17;2.70;;;;;;;21.20;42.09;98906.09;5093579;28;41684;-73
2022/07/20 02:59:05;;;;;;;2.57;2.37;;;;;;;21.15;41.85;98905.69;5092552;28;42787;-73
2022/07/20 03:01:33;;;;;;;4.37;2.57;;;;;;;21.08;41.68;98910.88;5091565;28;41309;-73
2022/07/20 03:04:00;;;;;;;2.77;2.27;;;;;;;20.99;41.87;98901.09;5092337;28;41756;-72
2022/07/20 03:06:30;;;;;;;4.13;2.33;;;;;;;20.93;42.12;98901.72;5075122;28;41485;-73
2022/07/20 03:08:57;;;;;;;2.53;2.33;;;;;;;20.95;42.18;98910.47;5091938;28;44510;-72
2022/07/20 03:11:25;;;;;;;2.83;2.43;;;;;;;20.94;42.41;98907.94;5091901;28;43244;-72
2022/07/20 03:13:52;;;;;;;2.90;2.60;;;;;;;20.94;42.17;98911.47;5093463;28;39857;-73
2022/07/20 03:16:20;;;;;;;3.03;2.73;;;;;;;20.96;42.05;98919.41;5092314;28;42696;-73
2022/07/20 03:18:47;;;;;;;4.00;2.53;;;;;;;20.97;42.13;98923.78;5091862;28;41876;-73
2022/07/20 03:21:15;;;;;;;3.07;2.77;;;;;;;20.97;42.20;98921.09;5093119;28;43183;-73
2022/07/20 03:23:44;;;;;;;4.43;2.73;;;;;;;20.93;42.63;98923.25;5092025;28;41171;-74
2022/07/20 03:26:12;;;;;;;3.57;2.53;;;;;;;20.89;42.48;98932.66;5091484;28;42823;-73
2022/07/20 03:28:40;;;;;;;3.53;3.23;;;;;;;20.86;42.69;98926.75;5091980;28;42806;-74
2022/07/20 03:31:07;;;;;;;2.77;2.20;;;;;;;20.81;42.76;98919.16;5091688;28;43750;-73
2022/07/20 03:33:35;;;;;;;4.20;3.00;;;;;;;20.80;42.91;98922.84;5093104;28;39900;-73
2022/07/20 03:36:04;;;;;;;3.13;2.83;;;;;;;20.82;43.38;98923.53;5074615;28;41965;-73
2022/07/20 03:38:31;;;;;;;3.43;2.93;;;;;;;20.83;43.45;98927.06;5092974;28;42798;-73
2022/07/20 03:41:01;;;;;;;3.20;2.67;;;;;;;20.82;43.33;98926.22;5091579;28;42265;-73
2022/07/20 03:43:28;;;;;;;4.30;3.30;;;;;;;20.83;43.45;98929.75;5093000;28;39878;-72
2022/07/20 03:45:56;;;;;;;4.37;3.13;;;;;;;20.83;43.34;98930.59;5091276;28;43146;-73
2022/07/20 03:48:24;;;;;;;4.53;3.20;;;;;;;20.80;43.26;98933.59;5074561;28;42399;-73
2022/07/20 03:50:52;;;;;;;4.70;3.50;;;;;;;20.78;43.43;98930.22;5091925;28;42275;-73
2022/07/20 03:53:19;;;;;;;3.27;2.97;;;;;;;20.78;42.99;98941.00;5090272;28;40612;-73
2022/07/20 03:55:47;;;;;;;2.87;2.63;;;;;;;20.77;43.36;98940.13;5074361;28;42145;-73
2022/07/20 03:58:17;;;;;;;4.77;2.67;;;;;;;20.78;43.61;98946.38;5092742;28;44165;-73
2022/07/20 04:00:44;;;;;;;4.30;3.10;;;;;;;20.78;43.55;98943.69;5090809;28;41183;-73
2022/07/20 04:03:12;;;;;;;4.03;3.00;;;;;;;20.82;43.86;98936.13;5092691;28;41513;-73
2022/07/20 04:05:40;;;;;;;7.43;3.80;;;;;;;20.87;44.00;98929.28;5091206;28;40099;-73
2022/07/20 04:08:08;;;;;;;4.20;3.43;;;;;;;20.92;43.75;98931.47;5092449;28;43678;-73
2022/07/20 04:10:37;;;;;;;4.77;3.30;;;;;;;20.88;43.65;98920.22;5091214;28;41065;-73
2022/07/20 04:13:05;;;;;;;4.87;3.70;;;;;;;21.00;43.80;98927.00;5092167;28;40072;-73
2022/07/20 04:15:34;;;;;;;5.97;3.60;;;;;;;21.06;43.97;98929.06;5090742;28;40749;-73
2022/07/20 04:18:02;;;;;;;3.70;3.30;;;;;;;21.10;43.96;98930.44;5090976;28;45049;-73
2022/07/20 04:20:30;;;;;;;5.03;3.37;;;;;;;21.16;43.85;98929.75;5074207;28;42242;-73
2022/07/20 04:22:57;;;;;;;4.40;3.60;;;;;;;21.25;43.88;98932.56;5073860;28;39061;-73
2022/07/20 04:25:25;;;;;;;4.13;3.20;;;;;;;21.37;43.52;98928.56;5092400;28;41797;-73
2022/07/20 04:27:53;;;;;;;4.60;3.63;;;;;;;21.49;43.91;98935.34;5073839;28;41662;-73
2022/07/20 04:30:21;;;;;;;3.80;2.97;;;;;;;21.60;43.97;98936.88;5092455;28;42333;-73
2022/07/20 04:32:50;;;;;;;5.07;3.80;;;;;;;21.65;43.40;98935.38;5090530;28;40375;-73
2022/07/20 04:35:17;;;;;;;5.20;3.70;;;;;;;21.82;43.29;98942.50;5091011;28;41797;-73
2022/07/20 04:37:45;;;;;;;4.90;3.90;;;;;;;21.94;43.52;98943.03;5091321;28;43728;-73
2022/07/20 04:40:13;;;;;;;4.10;3.47;;;;;;;22.00;43.39;98939.72;5091417;28;42103;-73
2022/07/20 04:42:42;;;;;;;5.87;3.97;;;;;;;22.14;43.29;98947.13;5090345;28;39485;-73
2022/07/20 04:45:11;;;;;;;7.10;4.00;;;;;;;22.26;43.27;98944.94;5092097;28;42699;-73
2022/07/20 04:47:39;;;;;;;4.20;3.30;;;;;;;22.35;43.42;98943.97;5090355;28;41712;-73
2022/07/20 04:50:10;;;;;;;4.17;3.30;;;;;;;22.47;42.97;98945.31;5091714;28;43193;-73
2022/07/20 04:52:38;;;;;;;5.80;3.90;;;;;;;22.58;43.26;98944.97;5091070;28;40910;-73
2022/07/20 04:55:07;;;;;;;3.97;3.30;;;;;;;22.65;42.84;98938.88;5073704;28;41341;-73
2022/07/20 04:57:35;;;;;;;4.33;3.23;;;;;;;22.79;42.98;98941.75;5089982;28;42788;-74
2022/07/20 05:00:03;;;;;;;6.27;3.90;;;;;;;22.91;42.85;98939.53;5089589;28;42341;-74
2022/07/20 05:02:31;;;;;;;6.37;3.60;;;;;;;23.01;43.22;98936.63;5090222;28;38365;-73
2022/07/20 05:04:59;;;;;;;4.70;3.33;;;;;;;23.14;42.96;98942.34;5089689;28;41765;-73
2022/07/20 05:07:28;;;;;;;5.73;3.90;;;;;;;23.25;43.00;98942.81;5090292;28;42685;-74
2022/07/20 05:09:56;;;;;;;4.17;3.60;;;;;;;23.37;42.89;98945.16;5073832;28;41167;-75
2022/07/20 05:12:24;;;;;;;4.70;3.30;;;;;;;23.42;42.53;98940.91;5090227;28;39748;-73
2022/07/20 05:14:52;;;;;;;3.93;3.23;;;;;;;23.51;42.13;98939.03;5091804;28;41795;-74
2022/07/20 05:17:20;;;;;;;5.73;3.23;;;;;;;23.66;41.95;98950.78;5090070;28;43060;-76
2022/07/20 05:19:47;;;;;;;4.40;2.70;;;;;;;23.67;41.96;98952.47;5091775;28;43219;-75
2022/07/20 05:22:16;;;;;;;3.80;3.13;;;;;;;23.67;42.10;98947.06;5091575;28;39963;-75
2022/07/20 05:24:45;;;;;;;4.10;3.30;;;;;;;23.65;42.06;98949.09;5090194;28;41184;-73
2022/07/20 05:27:13;;;;;;;4.40;3.03;;;;;;;23.69;42.15;98953.13;5090646;28;44119;-74
2022/07/20 05:29:41;;;;;;;5.00;3.30;;;;;;;23.82;42.21;98950.72;5091203;28;42385;-75
2022/07/20 05:32:08;;;;;;;4.00;3.33;;;;;;;23.95;42.13;98953.66;5089843;28;40943;-74
2022/07/20 05:34:36;;;;;;;4.27;3.40;;;;;;;24.09;42.13;98951.22;5073494;28;41931;-74
2022/07/20 05:37:04;;;;;;;4.63;3.37;;;;;;;24.22;42.22;98955.03;5089654;28;41740;-74
2022/07/20 05:39:31;;;;;;;3.17;2.97;;;;;;;24.32;42.04;98957.50;5091266;28;42425;-74
2022/07/20 05:42:00;;;;;;;3.50;3.20;;;;;;;24.44;41.97;98963.34;5090169;28;40698;-74
2022/07/20 05:44:28;;;;;;;3.90;2.80;;;;;;;24.54;41.69;98967.47;5089836;28;41501;-74
2022/07/20 05:46:56;;;;;;;5.00;3.50;;;;;;;24.66;41.89;98965.16;5090988;28;42724;-75
2022/07/20 05:49:24;;;;;;;4.23;3.43;;;;;;;24.81;41.56;98967.91;5073121;28;42344;-76
2022/07/20 05:51:51;;;;;;;3.23;2.93;;;;;;;24.96;41.72;98966.13;5089501;28;38920;-75
2022/07/20 05:54:19;;;;;;;3.07;2.87;;;;;;;25.10;41.20;98962.56;5089638;28;42458;-76
2022/07/20 05:56:47;;;;;;;3.17;2.87;;;;;;;25.27;41.37;98961.34;5090169;28;41246;-74
2022/07/20 05:59:16;;;;;;;4.30;3.20;;;;;;;25.44;40.97;98953.03;5090118;28;41366;-76
2022/07/20 06:01:45;;;;;;;3.27;2.97;;;;;;;25.60;41.07;98952.81;5090701;28;39936;-75
2022/07/20 06:04:13;;;;;;;5.40;3.73;;;;;;;25.76;40.89;98949.94;5090948;28;41655;-74
2022/07/20 06:06:40;;;;;;;3.47;3.17;;;;;;;25.91;40.83;98941.75;5090550;28;43728;-74
2022/07/20 06:09:10;;;;;;;3.70;3.30;;;;;;;26.04;40.58;98945.47;5089507;28;43650;-77
2022/07/20 06:11:38;;;;;;;3.00;2.80;;;;;;;26.25;40.50;98946.50;5072851;28;39042;-75
2022/07/20 06:14:06;;;;;;;4.57;3.30;;;;;;;26.44;40.31;98954.03;5089703;28;41803;-74
2022/07/20 06:16:35;;;;;;;5.47;3.27;;;;;;;26.60;40.35;98952.91;5090712;28;42713;-75
2022/07/20 06:19:03;;;;;;;3.23;2.90;;;;;;;26.76;39.89;98953.47;5093178;28;42448;-78
2022/07/20 06:21:31;;;;;;;4.00;3.03;;;;;;;26.92;39.60;98955.06;5094147;28;40961;-76
2022/07/20 06:23:58;;;;;;;5.10;3.07;;;;;;;27.06;39.22;98961.47;5093354;28;42670;-76
2022/07/20 06:26:26;;;;;;;3.50;3.20;;;;;;;27.23;39.00;98954.66;5093052;28;42803;-76
2022/07/20 06:28:54;;;;;;;3.20;3.00;;;;;;;27.43;39.32;98966.50;5093269;28;42461;-74
2022/07/20 06:31:21;;;;;;;3.00;2.77;;;;;;;27.63;39.08;98969.34;5076381;28;39311;-79
2022/07/20 06:33:51;;;;;;;4.30;2.73;;;;;;;27.82;38.35;98973.19;5093921;28;41721;-75
2022/07/20 06:36:19;;;;;;;4.23;2.90;;;;;;;28.03;37.95;98980.41;5093980;28;43818;-74
2022/07/20 06:38:47;;;;;;;4.60;3.27;;;;;;;28.18;37.76;98981.97;5093515;28;43204;-78
2022/07/20 06:41:15;;;;;;;6.67;3.40;;;;;;;28.38;37.65;98978.44;5075817;28;39010;-75
2022/07/20 06:43:42;;;;;;;3.80;3.07;;;;;;;28.59;37.42;98984.53;5076222;28;40571;-76
2022/07/20 06:46:10;;;;;;;3.70;2.97;;;;;;;28.77;37.02;98991.25;5075789;28;41389;-75
2022/07/20 06:48:40;;;;;;;4.27;2.87;;;;;;;28.90;36.70;98983.94;5092915;28;43251;-75
2022/07/20 06:51:10;;;;;;;3.50;3.20;;;;;;;29.04;36.19;98997.59;5092976;28;39070;-76
2022/07/20 06:53:38;;;;;;;3.20;2.90;;;;;;;29.19;36.06;98990.84;5075853;28;40892;-78
2022/07/20 06:56:06;;;;;;;3.40;3.10;;;;;;;29.41;35.28;99007.00;5075469;28;41741;-78
2022/07/20 06:58:34;;;;;;;3.20;2.80;;;;;;;29.69;34.74;99001.25;5075777;28;41271;-78
2022/07/20 07:01:02;;;;;;;3.20;2.67;;;;;;;29.96;34.13;98994.66;5093450;28;40786;-78
2022/07/20 07:03:29;;;;;;;4.77;2.97;;;;;;;30.28;33.59;99004.59;5093949;28;42651;-78
2022/07/20 07:05:57;;;;;;;3.93;2.70;;;;;;;30.49;31.79;99016.25;5092329;28;42722;-78
2022/07/20 07:08:26;;;;;;;3.00;2.60;;;;;;;30.66;31.33;99017.44;5091977;28;41150;-79
2022/07/20 07:10:54;;;;;;;3.30;2.50;;;;;;;30.94;31.38;99009.63;5075525;28;39360;-78
2022/07/20 07:13:22;;;;;;;2.60;2.40;;;;;;;31.26;31.46;99012.34;5093435;28;42768;-76
2022/07/20 07:15:50;;;;;;;3.63;2.83;;;;;;;31.47;30.73;99014.63;5092056;28;41781;-78
2022/07/20 07:18:17;;;;;;;3.13;2.87;;;;;;;31.50;29.92;99011.44;5093627;28;43204;-78
2022/07/20 07:20:45;;;;;;;3.50;3.20;;;;;;;31.66;29.51;99018.25;5093518;28;40668;-78
2022/07/20 07:23:13;;;;;;;3.83;3.07;;;;;;;31.73;29.42;99008.91;5093609;28;42545;-74
2022/07/20 07:25:42;;;;;;;3.67;2.80;;;;;;;32.02;29.82;99018.22;5093647;28;43452;-76
2022/07/20 07:28:10;;;;;;;3.30;3.00;;;;;;;32.30;29.30;99009.47;5091927;28;44116;-72
2022/07/20 07:30:38;;;;;;;2.83;2.60;;;;;;;32.74;28.47;99024.69;5093963;28;40893;-76
2022/07/20 07:33:05;;;;;;;3.10;2.80;;;;;;;33.27;27.67;99025.72;5074743;28;41900;-75
2022/07/20 07:35:33;;;;;;;2.80;2.60;;;;;;;34.19;26.61;99029.44;5091818;28;44404;-77
2022/07/20 07:38:01;;;;;;;3.00;2.80;;;;;;;35.34;25.23;99039.28;5091649;28;43130;-76
2022/07/20 07:40:29;;;;;;;3.73;2.90;;;;;;;36.36;24.34;99028.56;5093373;28;41015;-75
2022/07/20 07:42:58;;;;;;;2.77;2.57;;;;;;;37.27;23.62;99039.72;5091747;28;41784;-77
2022/07/20 07:45:26;;;;;;;3.47;2.63;;;;;;;37.73;23.11;99032.56;5074838;28;41654;-74
2022/07/20 07:47:54;;;;;;;4.60;3.40;;;;;;;38.06;22.29;99051.56;5091769;28;42358;-74
2022/07/20 07:50:21;;;;;;;3.38;2.63;;;;;;;38.48;21.96;99045.06;5074877;28;39898;-75
2022/07/20 07:52:49;;;;;;;3.15;2.88;;;;;;;39.32;20.72;99044.66;5091304;28;41799;-78
2022/07/20 07:55:17;;;;;;;3.53;3.33;;;;;;;39.83;20.48;99056.50;5074759;28;41700;-75
2022/07/20 07:57:44;;;;;;;2.80;2.60;;;;;;;39.69;20.29;99040.75;5092291;28;42277;-76
2022/07/20 08:00:14;;;;;;;3.88;2.80;;;;;;;39.27;20.80;99041.91;5074478;28;39327;-76
2022/07/20 08:02:42;;;;;;;3.00;2.70;;;;;;;38.99;21.26;99040.50;5091744;28;41953;-78
2022/07/20 08:05:10;;;;;;;3.43;3.13;;;;;;;38.79;21.08;99046.84;5091635;28;43455;-76
2022/07/20 08:07:40;;;;;;;3.28;3.03;;;;;;;38.71;21.27;99044.59;5092632;28;43118;-74
2022/07/20 08:10:09;;;;;;;2.83;2.63;;;;;;;39.39;20.69;99038.84;5091463;28;40328;-77
2022/07/20 08:12:37;;;;;;;4.85;3.50;;;;;;;40.40;19.62;99048.84;5074318;28;41980;-77
2022/07/20 08:15:06;;;;;;;4.03;3.65;;;;;;;41.26;18.98;99045.50;5091511;28;43851;-78
2022/07/20 08:17:35;;;;;;;3.05;2.85;;;;;;;41.88;18.68;99052.13;5074365;28;41228;-77
2022/07/20 08:20:05;;;;;;;3.50;3.20;;;;;;;41.70;18.80;99050.09;5091413;28;39603;-76
2022/07/20 08:22:33;;;;;;;4.53;3.33;;;;;;;41.16;19.39;99017.81;5093004;28;41711;-77
2022/07/20 08:25:01;;;;;;;5.18;3.55;;;;;;;41.07;19.27;99008.41;5092509;28;42527;-78
2022/07/20 08:27:29;;;;;;;3.50;3.20;;;;;;;42.17;19.08;99027.84;5092330;28;42989;-76
2022/07/20 08:30:00;;;;;;;3.25;2.83;;;;;;;43.63;17.89;99031.47;5074568;28;39934;-77
2022/07/20 08:32:28;;;;;;;3.28;3.03;;;;;;;44.13;16.63;99038.03;5074312;28;42370;-78
2022/07/20 08:34:57;;;;;;;4.50;3.60;;;;;;;44.32;16.52;99035.91;5092207;28;42899;-79
2022/07/20 08:37:25;;;;;;;2.88;2.67;;;;;;;44.38;16.62;99034.72;5073957;28;43165;-79
2022/07/20 08:39:54;;;;;;;3.45;3.17;;;;;;;44.71;16.85;99042.88;5091624;28;39961;-76
2022/07/20 08:42:23;;;;;;;3.38;3.08;;;;;;;44.90;16.27;99049.16;5092025;28;41766;-74
2022/07/20 08:44:51;;;;;;;2.88;2.50;;;;;;;45.10;16.30;99023.50;5073966;28;44344;-79
2022/07/20 08:47:22;;;;;;;3.55;2.50;;;;;;;46.08;15.45;99039.34;5090698;28;43263;-75
2022/07/20 08:49:51;;;;;;;2.78;2.58;;;;;;;47.14;14.33;99054.84;5087998;28;40896;-77
2022/07/20 08:52:20;;;;;;;2.67;2.47;;;;;;;48.17;14.03;99048.13;5073716;28;42163;-76
2022/07/20 08:54:48;;;;;;;2.60;2.45;;;;;;;49.00;13.59;99042.56;5090691;28;41699;-75
2022/07/20 08:57:18;;;;;;;3.00;2.70;;;;;;;48.78;13.78;99045.75;5090483;28;43841;-78
2022/07/20 08:59:46;;;;;;;2.70;2.50;;;;;;;47.85;14.03;99044.00;5073975;28;39182;-77
2022/07/20 09:02:16;;;;;;;2.85;2.65;;;;;;;46.77;14.59;99047.91;5090291;28;40768;-78
2022/07/20 09:04:52;;;;;;;2.70;2.50;;;;;;;45.95;15.65;99023.50;5073776;28;41925;-77
2022/07/20 09:07:38;;;;;;;3.05;2.75;;;;;;;45.78;16.18;99022.25;5073668;28;43666;-78
2022/07/20 09:10:08;;;;;;;4.07;2.80;;;;;;;45.50;15.68;99029.19;5090726;28;40403;-77
2022/07/20 09:12:51;;;;;;;2.80;2.60;;;;;;;44.74;15.91;99039.47;5090180;28;41784;-80
2022/07/20 09:15:36;;;;;;;3.22;2.90;;;;;;;43.93;16.84;99024.44;5073699;28;41506;-77
2022/07/20 09:18:09;;;;;;;2.88;2.67;;;;;;;43.45;17.40;99024.81;5090661;28;43145;-75
2022/07/20 09:20:39;;;;;;;3.55;3.28;;;;;;;43.13;17.26;99022.84;5087681;28;40942;-77
2022/07/20 09:23:10;;;;;;;3.40;3.08;;;;;;;42.89;17.86;99024.94;5090491;28;42248;-79
2022/07/20 09:25:49;;;;;;;3.47;3.17;;;;;;;42.68;17.99;99013.22;5073509;28;44689;-75
2022/07/20 09:28:17;;;;;;;3.60;2.65;;;;;;;42.57;17.98;99020.09;5088944;28;42191;-79
2022/07/20 09:30:51;;;;;;;2.85;2.65;;;;;;;42.55;17.95;99012.03;5091713;28;40016;-79
2022/07/20 09:33:25;;;;;;;3.35;3.10;;;;;;;42.48;17.95;99010.75;5087575;28;41964;-75
2022/07/20 09:35:53;;;;;;;3.33;3.08;;;;;;;42.43;18.01;99003.31;5086906;28;42819;-75
2022/07/20 09:38:33;;;;;;;3.17;2.97;;;;;;;42.42;18.12;99000.81;5091397;28;42375;-76
2022/07/20 09:41:01;;;;;;;3.83;3.28;;;;;;;42.83;17.92;99007.44;5090007;28;41425;-76
2022/07/20 09:43:32;;;;;;;3.30;3.00;;;;;;;43.14;17.61;99006.94;5091633;28;42391;-76
2022/07/20 09:46:19;;;;;;;3.67;3.38;;;;;;;43.24;17.39;99006.78;5088282;28;42851;-78
2022/07/20 09:48:49;;;;;;;3.15;2.90;;;;;;;43.63;16.72;98992.44;5090312;28;42328;-78
2022/07/20 09:51:35;;;;;;;5.38;2.65;;;;;;;44.16;16.55;99006.66;5090533;28;40353;-77
2022/07/20 09:54:07;;;;;;;3.20;2.97;;;;;;;44.45;16.75;99011.09;5090734;28;42996;-78
2022/07/20 09:56:38;;;;;;;3.13;2.58;;;;;;;44.97;16.67;99006.78;5093353;28;42929;-79
2022/07/20 09:59:09;;;;;;;2.53;2.38;;;;;;;45.42;16.29;99007.56;5095355;28;42005;-79
2022/07/20 10:01:39;;;;;;;3.60;3.17;;;;;;;45.91;15.78;99005.69;5094070;28;39962;-78
2022/07/20 10:04:08;;;;;;;3.38;2.70;;;;;;;46.13;15.34;99009.22;5094713;28;42265;-77
2022/07/20 10:06:37;;;;;;;3.05;2.78;;;;;;;45.72;15.78;99009.56;5093076;28;43900;-77
2022/07/20 10:09:09;;;;;;;3.50;3.20;;;;;;;45.00;16.09;99003.38;5076724;28;41694;-77
2022/07/20 10:11:37;;;;;;;5.38;3.00;;;;;;;44.32;16.50;99005.19;5092422;28;41007;-76
2022/07/20 10:14:06;;;;;;;2.92;2.72;;;;;;;43.91;17.37;98993.22;5093172;28;43410;-79
2022/07/20 10:16:38;;;;;;;3.50;3.20;;;;;;;43.93;17.06;98996.53;5093157;28;41879;-79
2022/07/20 10:19:07;;;;;;;3.30;3.10;;;;;;;43.99;16.86;98996.16;5090849;28;42384;-75
2022/07/20 10:21:39;;;;;;;3.03;2.83;;;;;;;44.45;16.77;98988.75;5094017;28;40021;-76
2022/07/20 10:24:22;;;;;;;3.40;3.10;;;;;;;45.37;16.18;98979.75;5076258;28;40822;-78
2022/07/20 10:26:52;;;;;;;3.30;3.10;;;;;;;46.43;15.66;98995.44;5092806;28;43423;-76
2022/07/20 10:29:33;;;;;;;3.03;2.83;;;;;;;46.94;14.72;98993.81;5092647;28;44025;-78
2022/07/20 10:32:14;;;;;;;2.90;2.60;;;;;;;46.91;14.29;98991.66;5092569;28;41069;-77
2022/07/20 10:34:43;;;;;;;3.55;3.20;;;;;;;46.66;14.94;98980.16;5089920;28;42469;-77
2022/07/20 10:37:38;;;;;;;3.15;2.85;;;;;;;46.20;15.21;98977.94;5093788;28;42681;-77
2022/07/20 10:40:21;;;;;;;3.95;3.10;;;;;;;46.10;14.98;98973.47;5094145;28;43275;-76
2022/07/20 10:42:50;;;;;;;3.35;3.00;;;;;;;46.63;15.26;98983.56;5093898;28;40027;-77
2022/07/20 10:45:30;;;;;;;3.88;3.20;;;;;;;46.93;14.95;98970.56;5093305;28;42545;-76
2022/07/20 10:48:03;;;;;;;3.40;3.10;;;;;;;46.71;15.45;98962.34;5093822;28;43800;-75
2022/07/20 10:50:33;;;;;;;3.25;2.90;;;;;;;46.42;15.66;98957.38;5092955;28;41398;-76
2022/07/20 10:53:38;;;;;;;3.13;2.85;;;;;;;46.04;16.00;98959.94;5092865;28;38917;-74
2022/07/20 10:56:08;;;;;;;3.13;2.83;;;;;;;45.93;15.62;98959.44;5075312;28;40657;-75
2022/07/20 10:58:38;;;;;;;3.40;3.10;;;;;;;45.78;15.59;98951.44;5074524;28;43136;-78
2022/07/20 11:01:07;;;;;;;4.13;2.85;;;;;;;45.71;16.02;98951.94;5089125;28;42330;-78
2022/07/20 11:03:38;;;;;;;3.65;3.35;;;;;;;45.91;15.39;98958.09;5074408;28;38361;-77
2022/07/20 11:06:10;;;;;;;3.53;2.88;;;;;;;45.97;15.47;98959.63;5085522;28;41909;-78
2022/07/20 11:08:38;;;;;;;3.70;3.40;;;;;;;46.17;15.55;98958.16;5074708;28;42183;-77
2022/07/20 11:11:15;;;;;;;3.05;2.85;;;;;;;46.36;15.08;98951.13;5092743;28;43195;-79
2022/07/20 11:13:44;;;;;;;3.92;2.83;;;;;;;46.61;15.19;98962.66;5087633;28;40756;-76
2022/07/20 11:16:11;;;;;;;3.55;3.25;;;;;;;46.44;14.92;98958.69;5091177;28;41412;-80
2022/07/20 11:18:39;;;;;;;4.68;3.22;;;;;;;46.35;14.86;98959.84;5091249;28;42737;-76
2022/07/20 11:21:09;;;;;;;3.30;3.00;;;;;;;46.12;15.13;98956.34;5091054;28;42259;-75
2022/07/20 11:23:43;;;;;;;4.15;3.20;;;;;;;45.90;15.01;98948.06;5074341;28;40762;-77
2022/07/20 11:26:13;;;;;;;3.78;3.53;;;;;;;45.76;15.45;98937.78;5089430;28;42654;-80
2022/07/20 11:28:45;;;;;;;3.50;3.30;;;;;;;45.70;15.90;98925.09;5090208;28;42130;-76
2022/07/20 11:31:14;;;;;;;3.72;3.20;;;;;;;45.70;15.89;98927.06;5089616;28;43280;-76
2022/07/20 11:33:44;;;;;;;3.33;3.03;;;;;;;45.72;15.61;98925.59;5091202;28;40187;-76
2022/07/20 11:36:16;;;;;;;3.92;3.30;;;;;;;45.82;15.08;98926.44;5091567;28;42755;-78
2022/07/20 11:38:46;;;;;;;5.35;3.38;;;;;;;45.80;14.76;98916.38;5090848;28;41761;-78
2022/07/20 11:41:17;;;;;;;3.10;2.90;;;;;;;46.00;15.15;98909.34;5091026;28;42327;-79
2022/07/20 11:43:49;;;;;;;3.53;3.22;;;;;;;46.42;15.01;98926.56;5088288;28;39907;-78
2022/07/20 11:46:19;;;;;;;3.63;3.33;;;;;;;46.60;14.83;98907.75;5073382;28;43730;-76